Time;durP1;ratioP1;P1;durP2;ratioP2;P2;SDS_P1;SDS_P2;PMS_P1;PMS_P2;Temp;Humidity;BMP_temperature;BMP_pressure;BME280_temperature;BME280_humidity;BME280_pressure;Samples;Min_cycle;Max_cycle;Signal;HPM_P1;HPM_P2
2022/09/23 00:01:42;;;;;;;9.40;7.33;;;9.40;99.90;;;;;;5052059;28;20972;-50
2022/09/23 00:04:09;;;;;;;19.47;7.90;;;9.40;99.90;;;;;;5051894;28;20445;-50
2022/09/23 00:06:36;;;;;;;13.73;8.57;;;9.30;99.90;;;;;;5051963;28;20455;-50
2022/09/23 00:09:02;;;;;;;13.50;7.70;;;9.30;99.90;;;;;;5051483;28;20434;-50
2022/09/23 00:11:29;;;;;;;11.60;6.40;;;9.30;99.90;;;;;;5051882;28;20455;-50
2022/09/23 00:13:59;;;;;;;17.63;8.40;;;9.10;99.90;;;;;;5051749;28;20825;-50
2022/09/23 00:16:28;;;;;;;9.40;7.40;;;9.00;99.90;;;;;;5051796;28;20489;-50
2022/09/23 00:18:56;;;;;;;10.57;7.70;;;9.00;99.90;;;;;;5051190;28;20844;-51
2022/09/23 00:21:24;;;;;;;14.40;7.70;;;8.90;99.90;;;;;;5051550;28;20470;-50
2022/09/23 00:23:50;;;;;;;9.63;7.33;;;9.00;99.90;;;;;;5051778;28;20466;-50
2022/09/23 00:26:19;;;;;;;8.93;7.23;;;9.10;99.90;;;;;;5051678;28;20441;-50
2022/09/23 00:28:47;;;;;;;8.63;7.00;;;9.20;99.90;;;;;;5051391;28;20439;-50
2022/09/23 00:31:15;;;;;;;8.20;6.83;;;9.70;99.90;;;;;;5051808;28;20816;-50
2022/09/23 00:33:42;;;;;;;8.30;6.67;;;9.30;99.90;;;;;;5051615;28;20438;-50
2022/09/23 00:36:14;;;;;;;7.73;5.93;;;9.20;99.90;;;;;;5051595;28;20550;-50
2022/09/23 00:38:41;;;;;;;11.13;7.03;;;9.30;99.90;;;;;;5051342;28;20481;-51
2022/09/23 00:41:08;;;;;;;10.30;7.60;;;9.00;99.90;;;;;;5051361;28;20473;-50
2022/09/23 00:43:40;;;;;;;13.87;7.60;;;8.90;99.90;;;;;;5051463;28;20993;-51
2022/09/23 00:46:08;;;;;;;7.53;6.50;;;9.10;99.90;;;;;;5051479;28;20526;-51
2022/09/23 00:48:36;;;;;;;7.37;6.30;;;9.40;99.90;;;;;;5051306;28;20426;-51
2022/09/23 00:51:06;;;;;;;9.67;7.10;;;9.30;99.90;;;;;;5051335;28;20458;-51
2022/09/23 00:53:34;;;;;;;10.00;7.43;;;9.10;99.90;;;;;;5051717;28;20817;-50
2022/09/23 00:56:06;;;;;;;9.90;7.20;;;8.90;99.90;;;;;;5033753;28;20535;-50
2022/09/23 00:58:35;;;;;;;7.97;6.40;;;9.00;99.90;;;;;;5051101;28;20483;-50
2022/09/23 01:01:04;;;;;;;8.90;6.87;;;9.20;99.90;;;;;;5051308;28;20466;-50
2022/09/23 01:03:31;;;;;;;9.17;7.17;;;8.90;99.90;;;;;;5051448;28;20405;-49
2022/09/23 01:05:58;;;;;;;10.00;6.90;;;9.10;99.90;;;;;;5051263;28;20429;-50
2022/09/23 01:08:26;;;;;;;7.70;6.73;;;9.00;99.90;;;;;;5051013;28;20433;-49
2022/09/23 01:11:02;;;;;;;9.57;7.80;;;9.20;99.90;;;;;;5051159;28;20458;-49
2022/09/23 01:13:41;;;;;;;8.83;7.27;;;8.80;99.90;;;;;;5051335;28;20430;-49
2022/09/23 01:16:14;;;;;;;9.50;7.03;;;8.40;99.90;;;;;;5051233;28;20484;-49
2022/09/23 01:18:48;;;;;;;10.00;7.00;;;9.10;99.90;;;;;;5051024;28;20434;-50
2022/09/23 01:21:33;;;;;;;12.93;7.77;;;8.60;99.90;;;;;;5051102;28;20469;-49
2022/09/23 01:24:37;;;;;;;8.77;7.33;;;9.00;99.90;;;;;;5051300;28;20492;-52
2022/09/23 01:27:32;;;;;;;9.03;7.03;;;8.70;99.90;;;;;;5051086;28;20911;-49
2022/09/23 01:30:15;;;;;;;11.37;7.03;;;8.70;99.90;;;;;;5051568;28;20867;-52
2022/09/23 01:33:04;;;;;;;8.27;7.50;;;8.60;99.90;;;;;;5054682;28;20443;-49
2022/09/23 01:35:41;;;;;;;14.30;8.87;;;8.40;99.90;;;;;;5054711;28;20586;-49
2022/09/23 01:38:20;;;;;;;12.80;8.87;;;8.50;99.90;;;;;;5036642;28;20445;-49
2022/09/23 01:40:51;;;;;;;12.40;8.87;;;8.70;99.90;;;;;;5054249;28;20457;-49
2022/09/23 01:43:24;;;;;;;10.83;7.67;;;8.40;99.90;;;;;;5054599;28;20429;-49
2022/09/23 01:45:55;;;;;;;11.10;9.30;;;8.60;99.90;;;;;;5054480;28;20429;-50
2022/09/23 01:48:29;;;;;;;9.07;7.67;;;8.70;99.90;;;;;;5054331;28;20452;-49
2022/09/23 01:51:04;;;;;;;9.47;7.47;;;8.40;99.90;;;;;;5054284;28;20454;-49
2022/09/23 01:53:38;;;;;;;9.77;7.40;;;8.60;99.90;;;;;;5054314;28;20449;-50
2022/09/23 01:56:09;;;;;;;9.90;7.40;;;8.70;99.90;;;;;;5054207;28;21058;-50
2022/09/23 01:58:42;;;;;;;8.67;7.13;;;8.40;99.90;;;;;;5053934;28;20507;-50
2022/09/23 02:01:15;;;;;;;7.93;6.97;;;8.00;99.90;;;;;;5054151;28;20460;-50
2022/09/23 02:03:47;;;;;;;12.00;7.17;;;8.30;99.90;;;;;;5054127;28;20407;-50
2022/09/23 02:06:17;;;;;;;10.60;7.97;;;8.50;99.90;;;;;;5054117;28;20441;-50
2022/09/23 02:08:49;;;;;;;11.93;8.40;;;8.40;99.90;;;;;;5053552;28;20439;-50
2022/09/23 02:11:17;;;;;;;10.73;7.80;;;8.40;99.90;;;;;;5054028;28;20459;-50
2022/09/23 02:13:48;;;;;;;12.40;7.60;;;8.50;99.90;;;;;;5054021;28;20524;-50
2022/09/23 02:16:23;;;;;;;8.47;7.57;;;8.80;99.90;;;;;;5053917;28;20477;-50
2022/09/23 02:18:56;;;;;;;8.30;7.27;;;8.40;99.90;;;;;;5053487;28;20433;-50
2022/09/23 02:21:26;;;;;;;11.40;7.10;;;8.30;99.90;;;;;;5053578;28;20480;-50
2022/09/23 02:23:58;;;;;;;9.13;7.97;;;8.70;99.90;;;;;;5035621;28;20522;-50
2022/09/23 02:26:30;;;;;;;8.80;7.30;;;8.60;99.90;;;;;;5053903;28;20936;-49
2022/09/23 02:29:06;;;;;;;9.50;7.37;;;8.30;99.90;;;;;;5053437;28;20444;-49
2022/09/23 02:31:37;;;;;;;10.47;7.67;;;8.50;99.90;;;;;;5053505;28;20440;-50
2022/09/23 02:34:15;;;;;;;8.50;7.23;;;8.30;99.90;;;;;;5053547;28;20528;-50
2022/09/23 02:36:51;;;;;;;8.03;7.23;;;8.40;99.90;;;;;;5035499;28;21033;-50
2022/09/23 02:39:22;;;;;;;8.03;6.67;;;8.40;99.90;;;;;;5053012;28;20433;-50
2022/09/23 02:41:57;;;;;;;11.47;8.50;;;8.20;99.90;;;;;;5053284;28;20498;-51
2022/09/23 02:44:24;;;;;;;7.90;7.00;;;8.30;99.90;;;;;;5053265;28;20434;-49
2022/09/23 02:46:52;;;;;;;10.10;7.53;;;8.20;99.90;;;;;;5053162;28;20440;-50
2022/09/23 02:49:22;;;;;;;10.10;7.63;;;8.50;99.90;;;;;;5052767;28;20444;-50
2022/09/23 02:51:50;;;;;;;11.87;6.80;;;7.80;99.90;;;;;;5053467;28;20432;-50
2022/09/23 02:54:20;;;;;;;7.37;6.57;;;8.20;99.90;;;;;;5053073;28;20931;-50
2022/09/23 02:56:48;;;;;;;8.53;6.77;;;8.20;99.90;;;;;;5053076;28;20482;-50
2022/09/23 02:59:18;;;;;;;9.40;7.27;;;7.60;99.90;;;;;;5052660;28;20527;-49
2022/09/23 03:01:56;;;;;;;10.73;8.13;;;8.10;99.90;;;;;;5053073;28;20480;-50
2022/09/23 03:04:32;;;;;;;12.27;8.57;;;8.20;99.90;;;;;;5052875;28;21000;-50
2022/09/23 03:07:05;;;;;;;12.03;8.03;;;8.10;99.90;;;;;;5052827;28;20436;-50
2022/09/23 03:09:36;;;;;;;9.77;7.20;;;8.20;99.90;;;;;;5052416;28;20450;-50
2022/09/23 03:12:12;;;;;;;9.87;6.50;;;8.20;99.90;;;;;;5052927;28;20996;-50
2022/09/23 03:14:48;;;;;;;7.90;6.90;;;7.80;99.90;;;;;;5052810;28;20893;-50
2022/09/23 03:17:20;;;;;;;10.60;6.57;;;7.80;99.90;;;;;;5034755;28;20470;-50
2022/09/23 03:19:54;;;;;;;9.30;7.03;;;8.20;99.90;;;;;;5052290;28;20440;-49
2022/09/23 03:22:25;;;;;;;8.33;6.80;;;8.20;99.90;;;;;;5052565;28;20433;-50
2022/09/23 03:24:54;;;;;;;8.37;6.67;;;8.20;99.90;;;;;;5052738;28;20423;-50
2022/09/23 03:27:25;;;;;;;10.10;6.90;;;8.20;99.90;;;;;;5052501;28;20428;-49
2022/09/23 03:29:53;;;;;;;11.13;6.67;;;8.20;99.90;;;;;;5051975;28;20469;-50
2022/09/23 03:32:24;;;;;;;13.20;7.30;;;8.20;99.90;;;;;;5052385;28;20506;-50
2022/09/23 03:34:55;;;;;;;10.63;7.23;;;8.20;99.90;;;;;;5052353;28;20429;-50
2022/09/23 03:37:25;;;;;;;7.90;6.90;;;7.60;99.90;;;;;;5052267;28;20481;-50
2022/09/23 03:39:57;;;;;;;9.27;7.50;;;8.10;99.90;;;;;;5051970;28;20465;-50
2022/09/23 03:42:26;;;;;;;11.40;6.83;;;8.20;99.90;;;;;;5052234;28;20448;-49
2022/09/23 03:44:55;;;;;;;8.80;7.80;;;8.10;99.90;;;;;;5052156;28;20438;-49
2022/09/23 03:47:23;;;;;;;14.40;7.57;;;8.10;99.90;;;;;;5052067;28;21178;-50
2022/09/23 03:49:51;;;;;;;12.37;8.30;;;8.40;99.90;;;;;;5051820;28;20467;-50
2022/09/23 03:52:20;;;;;;;7.90;6.83;;;8.00;99.90;;;;;;5051639;28;20441;-50
2022/09/23 03:54:47;;;;;;;11.50;7.97;;;8.00;99.90;;;;;;5033990;28;20468;-49
2022/09/23 03:57:14;;;;;;;10.03;7.90;;;8.00;99.90;;;;;;5051815;28;20555;-50
2022/09/23 03:59:41;;;;;;;12.83;7.30;;;8.10;99.90;;;;;;5051505;28;20456;-50
2022/09/23 04:02:08;;;;;;;8.63;6.90;;;8.30;99.90;;;;;;5051900;28;20444;-49
2022/09/23 04:04:39;;;;;;;12.93;8.17;;;7.70;99.90;;;;;;5051883;28;20440;-50
2022/09/23 04:07:06;;;;;;;14.00;7.80;;;8.10;99.90;;;;;;5052015;28;20981;-49
2022/09/23 04:09:33;;;;;;;9.80;7.20;;;8.10;99.90;;;;;;5051358;28;20857;-49
2022/09/23 04:12:00;;;;;;;8.93;7.40;;;8.30;99.90;;;;;;5051795;28;20433;-49
2022/09/23 04:14:27;;;;;;;10.30;8.03;;;8.20;99.90;;;;;;5051600;28;20445;-49
2022/09/23 04:16:54;;;;;;;10.80;8.17;;;8.20;99.90;;;;;;5051654;28;20449;-49
2022/09/23 04:19:20;;;;;;;12.07;8.00;;;8.20;99.90;;;;;;5051642;28;20441;-49
2022/09/23 04:21:47;;;;;;;14.30;7.83;;;8.20;99.90;;;;;;5051662;28;20524;-48
2022/09/23 04:24:16;;;;;;;10.40;8.23;;;8.30;99.90;;;;;;5051588;28;20495;-48
2022/09/23 04:26:43;;;;;;;11.00;7.87;;;8.10;99.90;;;;;;5051539;28;20715;-48
2022/09/23 04:29:10;;;;;;;12.90;7.70;;;8.00;99.90;;;;;;5051196;28;20449;-48
2022/09/23 04:31:37;;;;;;;19.10;8.00;;;7.40;99.90;;;;;;5051729;28;20518;-48
2022/09/23 04:34:03;;;;;;;15.63;7.97;;;7.80;99.90;;;;;;5051722;28;20415;-49
2022/09/23 04:36:30;;;;;;;9.83;7.37;;;8.10;99.90;;;;;;5051443;28;20459;-49
2022/09/23 04:38:56;;;;;;;10.87;7.80;;;7.90;99.90;;;;;;5051185;28;20745;-48
2022/09/23 04:41:24;;;;;;;18.90;8.50;;;8.30;99.90;;;;;;5051314;28;20522;-49
2022/09/23 04:43:51;;;;;;;13.70;8.20;;;8.10;99.90;;;;;;5051357;28;20403;-49
2022/09/23 04:46:18;;;;;;;17.23;9.07;;;8.30;99.90;;;;;;5051321;28;20440;-48
2022/09/23 04:48:44;;;;;;;13.10;7.93;;;8.20;99.90;;;;;;5051290;28;20510;-49
2022/09/23 04:51:14;;;;;;;11.90;8.17;;;8.00;99.90;;;;;;5051221;28;20465;-49
2022/09/23 04:53:42;;;;;;;21.23;8.97;;;8.10;99.90;;;;;;5051534;28;20823;-49
2022/09/23 04:56:14;;;;;;;18.33;8.47;;;8.00;99.90;;;;;;5051205;28;20975;-48
2022/09/23 04:58:42;;;;;;;13.97;8.90;;;8.10;99.90;;;;;;5051247;28;20433;-49
2022/09/23 05:01:11;;;;;;;11.43;7.13;;;8.00;99.90;;;;;;5051343;28;20460;-48
2022/09/23 05:03:38;;;;;;;12.03;8.70;;;7.90;99.90;;;;;;5051110;28;20433;-49
2022/09/23 05:06:06;;;;;;;9.60;8.10;;;7.60;99.90;;;;;;5035831;28;20446;-48
2022/09/23 05:08:33;;;;;;;13.47;8.50;;;7.90;99.90;;;;;;5054728;28;20441;-48
2022/09/23 05:11:03;;;;;;;12.80;9.47;;;7.70;99.90;;;;;;5055126;28;20468;-50
2022/09/23 05:13:31;;;;;;;22.53;9.90;;;8.10;99.90;;;;;;5054966;28;20408;-51
2022/09/23 05:16:00;;;;;;;29.73;11.00;;;8.10;99.90;;;;;;5054810;28;20518;-48
2022/09/23 05:18:27;;;;;;;18.73;10.90;;;8.20;99.90;;;;;;5054412;28;20455;-49
2022/09/23 05:20:54;;;;;;;11.40;8.80;;;8.00;99.90;;;;;;5054568;28;20472;-48
2022/09/23 05:23:21;;;;;;;24.23;9.80;;;8.00;99.90;;;;;;5036499;28;20457;-50
2022/09/23 05:25:48;;;;;;;13.40;8.80;;;8.10;99.90;;;;;;5054717;28;20437;-49
2022/09/23 05:28:16;;;;;;;16.03;9.23;;;8.30;99.90;;;;;;5053949;28;20436;-50
2022/09/23 05:30:43;;;;;;;17.63;10.50;;;8.10;99.90;;;;;;5054002;28;20974;-49
2022/09/23 05:33:11;;;;;;;16.87;10.17;;;8.30;99.90;;;;;;5054339;28;20437;-49
2022/09/23 05:35:37;;;;;;;22.73;11.03;;;8.70;99.90;;;;;;5054538;28;20436;-49
2022/09/23 05:38:04;;;;;;;16.97;9.50;;;8.10;99.90;;;;;;5054144;28;20479;-48
2022/09/23 05:40:31;;;;;;;18.90;12.10;;;8.30;99.90;;;;;;5053322;28;20468;-49
2022/09/23 05:42:58;;;;;;;14.67;9.60;;;8.40;99.90;;;;;;5053777;28;20450;-50
2022/09/23 05:45:24;;;;;;;12.33;9.80;;;7.80;99.90;;;;;;5053915;28;20434;-50
2022/09/23 05:47:51;;;;;;;18.13;10.77;;;8.30;99.90;;;;;;5054275;28;20549;-49
2022/09/23 05:50:19;;;;;;;13.73;8.97;;;8.40;99.90;;;;;;5053247;28;20567;-49
2022/09/23 05:52:45;;;;;;;38.10;10.40;;;8.40;99.90;;;;;;5053636;28;20444;-50
2022/09/23 05:55:12;;;;;;;13.67;10.67;;;8.70;99.90;;;;;;5053731;28;20777;-49
2022/09/23 05:57:39;;;;;;;11.67;8.20;;;8.80;99.90;;;;;;5053586;28;20581;-49
2022/09/23 06:00:06;;;;;;;10.80;7.80;;;8.60;99.90;;;;;;5053215;28;20496;-49
2022/09/23 06:02:38;;;;;;;12.30;6.90;;;8.70;99.90;;;;;;5053959;28;20537;-49
2022/09/23 06:05:05;;;;;;;18.43;8.97;;;8.40;99.90;;;;;;5053913;28;20423;-49
2022/09/23 06:07:34;;;;;;;8.83;7.60;;;9.20;99.90;;;;;;5053974;28;20442;-49
2022/09/23 06:10:00;;;;;;;9.80;6.50;;;9.50;99.90;;;;;;5053542;28;20529;-49
2022/09/23 06:12:27;;;;;;;8.93;7.10;;;9.60;99.90;;;;;;5053637;28;20837;-49
2022/09/23 06:14:53;;;;;;;11.30;6.40;;;9.40;99.90;;;;;;5053383;28;20484;-50
2022/09/23 06:17:20;;;;;;;9.13;7.33;;;9.60;99.90;;;;;;5052768;28;20486;-49
2022/09/23 06:19:46;;;;;;;7.13;6.50;;;10.30;99.90;;;;;;5053101;28;20974;-49
2022/09/23 06:22:15;;;;;;;7.80;6.10;;;10.20;99.90;;;;;;5053739;28;20766;-49
2022/09/23 06:24:43;;;;;;;8.93;5.63;;;9.80;99.90;;;;;;5053287;28;20443;-49
2022/09/23 06:27:10;;;;;;;7.03;6.33;;;10.00;99.90;;;;;;5053265;28;20427;-49
2022/09/23 06:29:37;;;;;;;10.80;6.23;;;10.40;99.90;;;;;;5053074;28;20455;-49
2022/09/23 06:32:04;;;;;;;10.33;6.33;;;10.50;99.90;;;;;;5053249;28;20529;-49
2022/09/23 06:34:31;;;;;;;8.00;5.60;;;10.00;99.90;;;;;;5053567;28;20529;-49
2022/09/23 06:36:58;;;;;;;8.67;5.80;;;10.10;99.90;;;;;;5053006;28;20549;-49
2022/09/23 06:39:25;;;;;;;7.40;6.70;;;10.30;99.90;;;;;;5052738;28;20931;-49
2022/09/23 06:41:53;;;;;;;7.33;6.17;;;10.30;99.90;;;;;;5034972;28;20455;-49
2022/09/23 06:44:19;;;;;;;9.50;6.50;;;10.20;99.90;;;;;;5052805;28;20435;-49
2022/09/23 06:46:46;;;;;;;10.83;7.23;;;10.60;99.90;;;;;;5053043;28;21004;-49
2022/09/23 06:49:12;;;;;;;16.23;7.97;;;10.40;99.90;;;;;;5052360;28;20408;-49
2022/09/23 06:51:40;;;;;;;9.50;7.57;;;10.40;99.90;;;;;;5053051;28;20911;-49
2022/09/23 06:54:06;;;;;;;7.53;5.77;;;11.00;99.90;;;;;;5052749;28;20438;-49
2022/09/23 06:56:33;;;;;;;9.30;5.80;;;10.60;99.90;;;;;;5052418;28;20427;-49
2022/09/23 06:59:01;;;;;;;10.10;6.87;;;9.90;99.90;;;;;;5052108;28;20435;-49
2022/09/23 07:01:27;;;;;;;11.00;8.07;;;10.80;99.90;;;;;;5052235;28;20466;-49
2022/09/23 07:03:54;;;;;;;8.30;6.60;;;10.60;99.90;;;;;;5052855;28;20434;-48
2022/09/23 07:06:21;;;;;;;8.93;6.03;;;11.00;99.90;;;;;;5052430;28;20564;-50
2022/09/23 07:08:48;;;;;;;9.60;6.93;;;10.70;99.90;;;;;;5052339;28;20489;-49
2022/09/23 07:11:18;;;;;;;27.43;6.53;;;10.80;99.90;;;;;;5052328;28;20781;-49
2022/09/23 07:13:44;;;;;;;9.10;6.37;;;10.70;99.90;;;;;;5052576;28;20431;-49
2022/09/23 07:16:13;;;;;;;5.87;5.27;;;10.40;99.90;;;;;;5052115;28;20763;-49
2022/09/23 07:18:40;;;;;;;8.07;6.50;;;11.20;99.90;;;;;;5052029;28;21009;-49
2022/09/23 07:21:09;;;;;;;10.50;6.10;;;11.60;99.90;;;;;;5052049;28;21034;-49
2022/09/23 07:23:36;;;;;;;9.20;6.10;;;11.60;99.90;;;;;;5051994;28;20435;-49
2022/09/23 07:26:03;;;;;;;6.73;5.50;;;11.30;99.90;;;;;;5052138;28;20535;-50
2022/09/23 07:28:31;;;;;;;8.57;5.47;;;11.40;99.90;;;;;;5051035;28;20446;-49
2022/09/23 07:31:02;;;;;;;8.37;6.60;;;10.90;99.90;;;;;;5051920;28;20459;-50
2022/09/23 07:33:30;;;;;;;7.20;4.83;;;11.30;99.90;;;;;;5051855;28;20442;-49
2022/09/23 07:35:57;;;;;;;10.30;5.80;;;11.90;99.90;;;;;;5051469;28;20504;-50
2022/09/23 07:38:28;;;;;;;6.50;4.60;;;11.90;99.90;;;;;;5051751;28;20454;-49
2022/09/23 07:41:01;;;;;;;10.03;5.67;;;11.70;99.90;;;;;;5051801;28;20454;-49
2022/09/23 07:43:31;;;;;;;9.83;5.33;;;11.80;99.90;;;;;;5051697;28;20473;-50
2022/09/23 07:45:58;;;;;;;7.50;5.70;;;11.70;99.90;;;;;;5051890;28;20911;-49
2022/09/23 07:48:25;;;;;;;9.80;6.13;;;12.30;99.90;;;;;;5051460;28;20452;-49
2022/09/23 07:50:53;;;;;;;10.90;6.70;;;11.80;99.90;;;;;;5051746;28;20951;-49
2022/09/23 07:53:20;;;;;;;6.30;5.67;;;12.30;99.90;;;;;;5051490;28;20828;-50
2022/09/23 07:55:52;;;;;;;8.13;5.93;;;12.10;99.90;;;;;;5051723;28;20431;-49
2022/09/23 07:58:19;;;;;;;8.97;6.57;;;11.70;99.90;;;;;;5051584;28;20478;-49
2022/09/23 08:00:46;;;;;;;6.50;5.70;;;12.30;99.90;;;;;;5050925;28;20503;-49
2022/09/23 08:03:13;;;;;;;8.73;5.30;;;12.20;99.90;;;;;;5051412;28;20785;-49
2022/09/23 08:05:40;;;;;;;9.90;5.70;;;12.10;99.90;;;;;;5051508;28;20933;-50
2022/09/23 08:08:08;;;;;;;7.87;5.63;;;12.20;99.90;;;;;;5051640;28;20518;-50
2022/09/23 08:10:35;;;;;;;7.30;6.13;;;12.80;99.90;;;;;;5051355;28;20506;-49
2022/09/23 08:13:02;;;;;;;6.90;5.57;;;12.80;99.90;;;;;;5051363;28;20825;-49
2022/09/23 08:15:30;;;;;;;7.73;5.80;;;12.70;99.90;;;;;;5051493;28;20440;-49
2022/09/23 08:17:58;;;;;;;8.10;6.37;;;12.50;99.90;;;;;;5051455;28;20509;-50
2022/09/23 08:23:13;;;;;;;7.70;6.90;;;12.50;99.90;;;;;;5051024;28;20439;-49
2022/09/23 08:25:40;;;;;;;9.30;6.63;;;12.60;99.90;;;;;;5050392;28;20950;-49
2022/09/23 08:28:07;;;;;;;9.90;7.03;;;12.40;99.90;;;;;;5051242;28;20439;-50
2022/09/23 08:30:33;;;;;;;8.30;6.33;;;12.40;99.90;;;;;;5050836;28;20455;-49
2022/09/23 08:33:00;;;;;;;8.33;6.50;;;12.90;99.90;;;;;;5050926;28;20446;-50
2022/09/23 08:35:26;;;;;;;9.53;6.80;;;12.90;99.90;;;;;;5051225;28;20441;-50
2022/09/23 08:37:53;;;;;;;9.43;6.33;;;13.00;99.90;;;;;;5051310;28;20509;-50
2022/09/23 08:40:21;;;;;;;13.87;8.87;;;12.80;99.90;;;;;;5053777;28;20452;-50
2022/09/23 08:42:48;;;;;;;7.27;6.57;;;12.70;99.90;;;;;;5055090;28;20488;-50
2022/09/23 08:45:20;;;;;;;6.53;5.93;;;13.20;99.90;;;;;;5055286;28;20465;-50
2022/09/23 08:47:52;;;;;;;11.47;8.13;;;13.10;99.90;;;;;;5055166;28;20517;-49
2022/09/23 08:50:21;;;;;;;6.60;6.00;;;13.30;99.90;;;;;;5054869;28;20470;-50
2022/09/23 08:52:51;;;;;;;7.40;5.40;;;13.00;99.90;;;;;;5054473;28;20919;-50
2022/09/23 08:55:19;;;;;;;7.38;6.20;;;13.60;99.90;;;;;;5054442;28;20431;-49
2022/09/23 08:57:58;;;;;;;6.53;5.93;;;14.00;99.90;;;;;;5054521;28;20295;-50
2022/09/23 09:00:32;;;;;;;7.80;5.40;;;13.50;99.90;;;;;;5054466;28;20828;-50
2022/09/23 09:02:59;;;;;;;10.37;5.80;;;13.40;99.90;;;;;;5049820;28;20442;-48
2022/09/23 09:05:28;;;;;;;11.53;6.33;;;13.90;99.90;;;;;;5052434;28;20457;-48
2022/09/23 09:08:00;;;;;;;7.40;6.40;;;13.00;99.90;;;;;;5054558;28;20418;-49
2022/09/23 09:10:33;;;;;;;5.73;5.23;;;13.30;99.90;;;;;;5036663;28;20472;-48
2022/09/23 09:13:06;;;;;;;8.47;6.70;;;13.90;99.90;;;;;;5054804;28;20441;-48
2022/09/23 09:15:36;;;;;;;9.93;6.27;;;13.90;99.90;;;;;;5054524;28;20528;-48
2022/09/23 09:18:06;;;;;;;6.67;5.93;;;14.00;99.90;;;;;;5054990;28;20461;-48
2022/09/23 09:20:51;;;;;;;6.03;5.23;;;13.50;99.90;;;;;;5054061;28;20586;-49
2022/09/23 09:23:22;;;;;;;7.20;4.97;;;13.80;99.90;;;;;;5054710;28;20450;-48
2022/09/23 09:25:50;;;;;;;7.10;4.93;;;13.20;99.90;;;;;;5054280;28;20434;-48
2022/09/23 09:28:23;;;;;;;6.70;4.90;;;13.20;99.90;;;;;;5054189;28;20470;-48
2022/09/23 09:30:53;;;;;;;5.20;4.40;;;14.10;99.90;;;;;;5054505;28;20491;-49
2022/09/23 09:33:27;;;;;;;5.00;4.53;;;14.00;99.90;;;;;;5054312;28;20947;-49
2022/09/23 09:36:15;;;;;;;7.60;5.27;;;14.30;99.90;;;;;;5054431;28;20454;-49
2022/09/23 09:38:41;;;;;;;5.53;4.33;;;13.70;99.90;;;;;;5051705;28;20474;-48
2022/09/23 09:41:14;;;;;;;8.50;4.77;;;14.20;99.90;;;;;;5053866;28;20450;-49
2022/09/23 09:43:47;;;;;;;5.07;4.57;;;14.10;99.90;;;;;;5053232;28;21037;-49
2022/09/23 09:46:28;;;;;;;6.17;4.60;;;13.80;99.90;;;;;;5051921;28;20445;-49
2022/09/23 09:48:58;;;;;;;5.43;4.30;;;14.20;99.90;;;;;;5053783;28;20438;-49
2022/09/23 09:51:27;;;;;;;5.20;4.70;;;14.20;99.90;;;;;;5053228;28;20824;-49
2022/09/23 09:53:55;;;;;;;9.20;4.30;;;14.60;99.90;;;;;;5054198;28;20435;-47
2022/09/23 09:56:30;;;;;;;5.73;3.70;;;14.30;99.90;;;;;;5035025;28;20435;-48
2022/09/23 09:59:01;;;;;;;5.57;3.60;;;14.70;99.90;;;;;;5052383;28;20449;-49
2022/09/23 10:01:30;;;;;;;4.30;3.90;;;14.50;99.90;;;;;;5053812;28;20220;-49
2022/09/23 10:03:59;;;;;;;4.17;3.30;;;14.70;99.90;;;;;;5035769;28;20451;-49
2022/09/23 10:06:27;;;;;;;7.10;4.50;;;14.80;99.90;;;;;;5053527;28;20426;-49
2022/09/23 10:09:13;;;;;;;5.93;4.40;;;14.80;99.90;;;;;;5052792;28;20704;-49
2022/09/23 10:11:41;;;;;;;5.30;3.63;;;15.00;99.90;;;;;;5053080;28;20435;-50
2022/09/23 10:14:16;;;;;;;4.50;3.10;;;15.10;99.90;;;;;;5033377;28;20843;-49
2022/09/23 10:16:43;;;;;;;3.90;2.70;;;14.90;99.70;;;;;;5033068;28;20470;-49
2022/09/23 10:19:16;;;;;;;5.03;2.60;;;15.20;99.40;;;;;;5014890;28;20483;-49
2022/09/23 10:21:43;;;;;;;5.60;2.90;;;15.30;98.90;;;;;;5092351;22;20863;-49
2022/09/23 10:24:21;;;;;;;3.25;2.20;;;14.60;98.10;;;;;;5073282;28;20779;-50
2022/09/23 10:26:54;;;;;;;4.83;1.90;;;15.40;95.70;;;;;;5073444;28;20218;-49
2022/09/23 10:29:28;;;;;;;2.63;2.10;;;15.40;94.30;;;;;;5072992;28;20429;-52
2022/09/23 10:32:22;;;;;;;3.77;2.03;;;15.20;93.00;;;;;;5072887;28;20776;-50
2022/09/23 10:34:51;;;;;;;2.07;1.60;;;15.50;93.50;;;;;;5073508;28;20828;-50
2022/09/23 10:37:24;;;;;;;3.87;3.47;;;15.50;93.00;;;;;;5072517;28;20441;-50
2022/09/23 10:48:35;;;;;;;5.00;3.00;;;15.40;93.50;;;;;;5072477;28;20418;-49
2022/09/23 10:51:07;;;;;;;3.37;2.23;;;16.30;94.20;;;;;;5072811;28;20516;-49
2022/09/23 10:53:43;;;;;;;4.50;2.47;;;15.90;93.60;;;;;;5072341;28;20430;-50
2022/09/23 10:56:19;;;;;;;3.50;2.07;;;15.90;93.50;;;;;;5072425;28;20957;-51
2022/09/23 10:59:07;;;;;;;3.80;2.20;;;16.10;93.30;;;;;;5071770;28;20469;-49
2022/09/23 11:01:43;;;;;;;2.60;2.30;;;16.10;92.40;;;;;;5071702;28;20996;-51
2022/09/23 11:04:38;;;;;;;5.70;2.83;;;16.20;92.00;;;;;;5072664;28;20453;-51
2022/09/23 11:07:17;;;;;;;2.70;2.10;;;16.30;92.10;;;;;;5070772;28;20435;-51
2022/09/23 11:10:09;;;;;;;2.57;1.80;;;16.30;91.40;;;;;;5071666;28;20460;-51
2022/09/23 11:12:47;;;;;;;3.60;1.43;;;16.40;91.30;;;;;;5071628;28;20430;-51
2022/09/23 11:15:30;;;;;;;2.53;2.03;;;16.80;91.40;;;;;;5071471;28;20465;-50
2022/09/23 11:18:16;;;;;;;2.23;2.00;;;16.50;90.40;;;;;;5071201;28;20483;-50
2022/09/23 11:20:51;;;;;;;2.73;2.00;;;16.60;88.90;;;;;;5071258;28;20492;-50
2022/09/23 11:23:47;;;;;;;4.70;2.73;;;16.60;89.20;;;;;;5070479;28;20480;-51
2022/09/23 11:26:29;;;;;;;7.47;2.80;;;16.50;87.50;;;;;;5071866;28;20434;-51
2022/09/23 11:29:20;;;;;;;6.57;3.03;;;16.50;89.20;;;;;;5070332;28;20973;-50
2022/09/23 11:31:59;;;;;;;5.17;2.07;;;16.80;90.10;;;;;;5071484;28;20816;-50
2022/09/23 11:34:55;;;;;;;4.70;2.40;;;16.80;90.10;;;;;;5071841;28;20468;-50
2022/09/23 11:37:26;;;;;;;3.70;2.03;;;17.00;89.60;;;;;;5070209;28;20473;-49
2022/09/23 11:39:59;;;;;;;2.23;2.03;;;17.10;89.40;;;;;;5071289;28;20481;-49
2022/09/23 11:42:29;;;;;;;3.70;2.87;;;17.00;89.50;;;;;;5071897;28;20431;-50
2022/09/23 11:44:59;;;;;;;2.40;2.10;;;16.90;87.70;;;;;;5072214;28;20444;-50
2022/09/23 11:47:31;;;;;;;2.30;2.10;;;16.90;87.90;;;;;;5070184;28;20457;-50
2022/09/23 11:50:02;;;;;;;2.90;2.13;;;16.90;87.90;;;;;;5070497;28;20453;-48
2022/09/23 11:52:32;;;;;;;3.47;2.23;;;17.10;88.60;;;;;;5070583;28;20437;-50
2022/09/23 11:55:06;;;;;;;2.40;2.00;;;16.90;87.70;;;;;;5071130;28;20628;-50
2022/09/23 11:57:38;;;;;;;4.07;2.87;;;17.10;87.90;;;;;;5070405;28;20485;-49
2022/09/23 12:00:12;;;;;;;2.37;2.03;;;17.30;88.10;;;;;;5071782;28;21088;-51
2022/09/23 12:02:49;;;;;;;3.50;2.80;;;16.80;88.10;;;;;;5071060;28;20453;-50
2022/09/23 12:05:22;;;;;;;3.57;2.90;;;16.60;87.60;;;;;;5071255;28;20439;-49
2022/09/23 12:07:55;;;;;;;4.03;2.40;;;16.80;87.80;;;;;;5071128;28;20958;-51
2022/09/23 12:10:23;;;;;;;3.53;2.13;;;16.30;86.70;;;;;;5068580;28;20470;-49
2022/09/23 12:12:58;;;;;;;3.53;2.70;;;16.30;86.50;;;;;;5070284;28;20448;-50
2022/09/23 12:15:38;;;;;;;3.73;2.90;;;16.70;87.20;;;;;;5069007;28;20442;-49
2022/09/23 12:18:34;;;;;;;3.40;3.10;;;17.00;87.20;;;;;;5070765;28;20439;-50
2022/09/23 12:21:25;;;;;;;8.77;3.63;;;17.00;85.70;;;;;;5057710;28;20600;-50
2022/09/23 12:24:09;;;;;;;3.47;2.67;;;16.80;85.60;;;;;;5071262;28;20431;-50
2022/09/23 12:26:37;;;;;;;4.13;2.40;;;16.80;85.90;;;;;;5069957;28;20513;-49
2022/09/23 12:29:05;;;;;;;2.87;2.20;;;16.50;86.00;;;;;;5070501;28;20805;-49
2022/09/23 12:31:38;;;;;;;3.70;2.47;;;17.00;86.40;;;;;;5069931;28;20768;-50
2022/09/23 12:34:20;;;;;;;3.20;2.27;;;16.90;86.40;;;;;;5070575;28;20460;-50
2022/09/23 12:36:48;;;;;;;5.97;2.80;;;16.90;84.70;;;;;;5070805;28;20442;-50
2022/09/23 12:39:18;;;;;;;2.80;2.60;;;16.90;86.00;;;;;;5070382;28;20994;-50
2022/09/23 12:41:49;;;;;;;4.10;2.93;;;17.00;85.60;;;;;;5070721;28;20837;-49
2022/09/23 12:44:30;;;;;;;3.83;2.80;;;16.90;85.40;;;;;;5070500;28;20471;-50
2022/09/23 12:47:34;;;;;;;3.40;2.33;;;17.40;86.30;;;;;;5070985;28;20427;-48
2022/09/23 12:50:01;;;;;;;3.67;2.53;;;16.80;84.90;;;;;;5070154;28;20962;-50
2022/09/23 12:52:32;;;;;;;4.60;2.37;;;17.10;85.20;;;;;;5070601;28;20837;-50
2022/09/23 12:55:24;;;;;;;3.83;1.87;;;17.20;84.90;;;;;;5070714;28;20501;-50
2022/09/23 12:57:51;;;;;;;4.00;3.60;;;16.80;84.30;;;;;;5070601;28;20477;-49
2022/09/23 13:00:25;;;;;;;3.73;2.73;;;16.80;85.00;;;;;;5070214;28;20488;-49
2022/09/23 13:08:35;;;;;;;3.50;2.50;;;16.80;85.90;;;;;;5070306;28;20414;-48
2022/09/23 13:11:04;;;;;;;4.23;3.00;;;16.80;85.80;;;;;;5070624;28;20825;-50
2022/09/23 13:13:35;;;;;;;3.73;2.20;;;16.80;85.50;;;;;;5071268;28;20445;-50
2022/09/23 13:16:12;;;;;;;3.10;2.50;;;17.00;85.00;;;;;;5070622;28;20522;-50
2022/09/23 13:18:57;;;;;;;3.03;1.83;;;16.70;83.20;;;;;;5070564;28;20495;-50
2022/09/23 13:21:58;;;;;;;3.70;2.13;;;16.80;82.90;;;;;;5070594;28;20827;-49
2022/09/23 13:24:46;;;;;;;3.00;2.30;;;16.80;83.60;;;;;;5063908;28;20535;-50
2022/09/23 13:27:17;;;;;;;2.93;1.80;;;16.60;82.50;;;;;;5073769;28;20423;-50